Time;durP1;ratioP1;P1;durP2;ratioP2;P2;SDS_P1;SDS_P2;PMS_P1;PMS_P2;Temp;Humidity;BMP_temperature;BMP_pressure;BME280_temperature;BME280_humidity;BME280_pressure;Samples;Min_cycle;Max_cycle;Signal;HPM_P1;HPM_P2
2021/11/28 00:02:34;;;;;;;126.27;60.92;;;;;;;-0.75;77.55;98423.41;2142727;83;27527;-67
2021/11/28 00:05:35;;;;;;;126.18;60.20;;;;;;;-0.75;77.71;98414.64;2137335;83;28661;-65
2021/11/28 00:11:44;;;;;;;122.40;58.63;;;;;;;-0.77;77.85;98412.08;2110473;83;33362;-64
2021/11/28 00:14:42;;;;;;;115.90;57.93;;;;;;;-0.79;77.87;98406.85;2120293;83;28571;-62
2021/11/28 00:17:45;;;;;;;109.83;56.18;;;;;;;-0.78;77.94;98409.88;2123803;83;27653;-62
2021/11/28 00:20:47;;;;;;;107.72;53.00;;;;;;;-0.78;78.00;98407.25;2117687;83;28912;-63
2021/11/28 00:23:49;;;;;;;109.57;56.85;;;;;;;-0.77;77.91;98405.50;2120201;83;32427;-64
2021/11/28 00:26:51;;;;;;;111.85;54.53;;;;;;;-0.78;78.03;98401.16;2121593;83;34313;-63
2021/11/28 00:29:53;;;;;;;112.60;54.60;;;;;;;-0.81;78.17;98392.05;2120306;83;30649;-67
2021/11/28 00:32:55;;;;;;;111.40;56.05;;;;;;;-0.82;78.12;98392.96;2099589;83;27658;-64
2021/11/28 00:35:58;;;;;;;112.10;53.92;;;;;;;-0.82;78.20;98380.66;2087688;85;30836;-68
2021/11/28 00:39:00;;;;;;;115.65;55.60;;;;;;;-0.82;78.24;98382.45;2087335;85;31160;-68
2021/11/28 00:42:06;;;;;;;112.08;54.95;;;;;;;-0.80;78.24;98398.56;2109812;83;33838;-66
2021/11/28 00:45:07;;;;;;;106.75;55.73;;;;;;;-0.79;78.22;98399.44;2141085;83;30305;-68
2021/11/28 00:48:09;;;;;;;121.70;57.30;;;;;;;-0.79;78.22;98407.32;2141105;83;27677;-68
2021/11/28 00:54:20;;;;;;;115.70;57.03;;;;;;;-0.80;78.12;98423.53;2122447;83;32219;-64
2021/11/28 00:57:26;;;;;;;114.75;54.13;;;;;;;-0.81;78.04;98420.97;2105076;83;34181;-63
2021/11/28 01:00:29;;;;;;;115.35;55.73;;;;;;;-0.82;78.17;98418.78;2104857;84;29400;-63
2021/11/28 01:03:31;;;;;;;124.95;60.23;;;;;;;-0.83;78.21;98417.09;2105212;84;27638;-62
2021/11/28 01:06:32;;;;;;;140.73;65.47;;;;;;;-0.84;78.10;98412.74;2119309;82;29230;-62
2021/11/28 01:09:35;;;;;;;168.22;70.08;;;;;;;-0.84;78.00;98415.81;2153730;82;31252;-63
2021/11/28 01:12:37;;;;;;;157.25;67.70;;;;;;;-0.86;77.99;98424.20;2155165;82;34307;-65
2021/11/28 01:15:39;;;;;;;151.63;65.60;;;;;;;-0.87;77.95;98431.23;2155446;82;29745;-66
2021/11/28 01:18:41;;;;;;;134.67;60.70;;;;;;;-0.88;77.93;98431.27;2147626;82;27744;-62
2021/11/28 01:21:57;;;;;;;122.10;56.40;;;;;;;-0.90;77.88;98433.09;2144477;82;28447;-68
2021/11/28 01:24:59;;;;;;;110.45;53.85;;;;;;;-0.92;78.04;98437.09;2149753;82;32226;-67
2021/11/28 01:28:00;;;;;;;120.00;54.35;;;;;;;-0.94;77.87;98442.86;2118558;82;34258;-63
2021/11/28 01:31:02;;;;;;;119.45;56.45;;;;;;;-0.97;77.87;98453.02;2136225;83;29705;-67
2021/11/28 01:34:04;;;;;;;136.05;61.15;;;;;;;-0.97;77.87;98453.02;2137131;83;27665;-67
2021/11/28 01:37:06;;;;;;;137.20;59.80;;;;;;;-0.99;77.77;98462.72;2137215;83;29100;-68
2021/11/28 01:40:13;;;;;;;146.18;60.78;;;;;;;-1.02;77.87;98458.88;2130623;83;31026;-68
2021/11/28 01:43:16;;;;;;;124.20;57.75;;;;;;;-1.04;77.91;98452.80;2091540;84;33134;-67
2021/11/28 01:46:20;;;;;;;126.65;57.88;;;;;;;-1.02;77.93;98450.15;2082913;85;29547;-65
2021/11/28 01:49:22;;;;;;;125.02;57.88;;;;;;;-1.03;77.92;98445.33;2137761;82;27715;-67
2021/11/28 01:52:25;;;;;;;117.62;58.50;;;;;;;-1.03;77.94;98432.19;2151256;82;29032;-68
2021/11/28 01:55:30;;;;;;;124.62;58.52;;;;;;;-1.02;78.17;98428.66;2150327;82;31071;-67
2021/11/28 01:58:32;;;;;;;118.75;55.17;;;;;;;-1.01;78.29;98435.62;2150066;82;33802;-68
2021/11/28 02:01:34;;;;;;;111.90;54.42;;;;;;;-1.00;78.31;98431.25;2150696;82;30561;-67
2021/11/28 02:04:37;;;;;;;100.10;50.48;;;;;;;-0.98;78.33;98426.34;2145999;82;27668;-68
2021/11/28 02:07:38;;;;;;;112.85;51.80;;;;;;;-0.96;78.32;98431.53;2145130;82;28652;-67
2021/11/28 02:10:41;;;;;;;107.87;51.20;;;;;;;-0.95;78.34;98426.67;2142807;82;32265;-67
2021/11/28 02:13:43;;;;;;;105.03;48.78;;;;;;;-0.94;78.46;98431.91;2137024;83;34188;-66
2021/11/28 02:16:47;;;;;;;107.63;51.70;;;;;;;-0.90;78.54;98426.52;2140892;82;29704;-66
2021/11/28 02:19:49;;;;;;;102.45;50.75;;;;;;;-0.86;78.55;98417.19;2122794;82;27685;-63
2021/11/28 02:22:52;;;;;;;97.65;50.12;;;;;;;-0.84;78.56;98418.44;2120964;83;28819;-63
2021/11/28 02:26:02;;;;;;;106.03;52.27;;;;;;;-0.82;78.50;98424.04;2134116;82;31935;-64
2021/11/28 02:29:04;;;;;;;114.57;55.58;;;;;;;-0.79;78.36;98427.04;2121049;83;33888;-64
2021/11/28 02:32:07;;;;;;;106.07;53.00;;;;;;;-0.77;78.33;98426.53;2121566;83;29719;-63
2021/11/28 02:35:13;;;;;;;109.22;53.92;;;;;;;-0.77;78.37;98433.95;2136413;82;27738;-64
2021/11/28 02:38:14;;;;;;;101.62;51.45;;;;;;;-0.74;78.36;98437.39;2157541;82;30160;-64
2021/11/28 02:41:15;;;;;;;104.17;52.15;;;;;;;-0.74;78.34;98432.98;2154750;82;31454;-63
2021/11/28 02:44:18;;;;;;;106.90;49.15;;;;;;;-0.72;78.42;98439.05;2120856;83;34308;-60
2021/11/28 02:47:22;;;;;;;92.85;45.50;;;;;;;-0.72;78.53;98431.16;2121157;83;29746;-65
2021/11/28 02:50:24;;;;;;;97.47;48.58;;;;;;;-0.62;78.65;98429.95;2135682;82;27723;-64
2021/11/28 02:53:26;;;;;;;91.05;46.80;;;;;;;-0.58;78.65;98431.17;2158669;82;29064;-64
2021/11/28 02:56:28;;;;;;;95.77;46.68;;;;;;;-0.54;78.69;98427.06;2159127;82;31422;-65
2021/11/28 02:59:30;;;;;;;92.53;46.68;;;;;;;-0.48;78.72;98424.66;2158836;82;34075;-65
2021/11/28 03:02:34;;;;;;;101.82;48.68;;;;;;;-0.46;78.65;98417.11;2158542;82;29722;-66
2021/11/28 03:05:36;;;;;;;92.20;45.50;;;;;;;-0.43;78.58;98415.29;2136200;78;27716;-62
2021/11/28 03:08:39;;;;;;;103.15;47.50;;;;;;;-0.42;78.61;98413.94;2149841;82;29872;-62
2021/11/28 03:11:41;;;;;;;91.10;44.95;;;;;;;-0.38;78.63;98409.42;2148982;82;31415;-63
2021/11/28 03:14:43;;;;;;;93.92;46.23;;;;;;;-0.36;78.55;98415.48;2149854;82;33718;-61
2021/11/28 03:17:45;;;;;;;93.07;45.60;;;;;;;-0.34;78.54;98413.66;2155958;82;29657;-62
2021/11/28 03:20:48;;;;;;;95.47;46.83;;;;;;;-0.34;78.46;98421.56;2159529;81;27651;-62
2021/11/28 03:23:52;;;;;;;98.82;49.73;;;;;;;-0.34;78.32;98418.92;2148763;82;29414;-62
2021/11/28 03:26:54;;;;;;;94.05;46.18;;;;;;;-0.34;78.30;98420.24;2149974;82;30670;-61
2021/11/28 03:29:56;;;;;;;90.00;44.98;;;;;;;-0.36;78.29;98422.91;2149746;82;33018;-61
2021/11/28 03:32:58;;;;;;;89.83;43.17;;;;;;;-0.36;78.33;98416.80;2149591;82;30131;-62
2021/11/28 03:36:00;;;;;;;97.45;45.48;;;;;;;-0.35;78.24;98415.89;2149749;82;27714;-62
2021/11/28 03:39:07;;;;;;;95.90;46.95;;;;;;;-0.37;78.16;98418.56;2165066;82;28625;-61
2021/11/28 03:42:09;;;;;;;96.82;47.25;;;;;;;-0.38;78.09;98416.84;2151507;82;31026;-61
2021/11/28 03:45:14;;;;;;;100.97;47.78;;;;;;;-0.39;78.10;98414.28;2149598;82;33741;-61
2021/11/28 03:48:16;;;;;;;97.33;48.92;;;;;;;-0.41;78.12;98418.26;2149420;82;31423;-61
2021/11/28 03:51:18;;;;;;;103.12;50.45;;;;;;;-0.42;78.17;98425.78;2149340;82;27673;-62
2021/11/28 03:54:21;;;;;;;93.87;45.98;;;;;;;-0.43;78.18;98428.00;2149367;82;28655;-62
2021/11/28 03:57:23;;;;;;;96.80;48.10;;;;;;;-0.43;78.13;98425.38;2149703;82;31827;-61
2021/11/28 04:00:24;;;;;;;91.17;44.08;;;;;;;-0.44;78.15;98424.09;2149651;82;33367;-63
2021/11/28 04:03:27;;;;;;;89.90;43.38;;;;;;;-0.46;77.99;98426.31;2149274;82;30172;-62
2021/11/28 04:06:29;;;;;;;88.72;44.20;;;;;;;-0.46;77.92;98431.58;2164050;81;27685;-62
2021/11/28 04:09:31;;;;;;;89.20;44.53;;;;;;;-0.49;77.85;98426.42;2160372;81;29876;-61
2021/11/28 04:12:32;;;;;;;97.92;48.28;;;;;;;-0.51;77.81;98431.34;2151562;82;32191;-62
2021/11/28 04:15:35;;;;;;;85.95;45.63;;;;;;;-0.55;77.84;98426.66;2151910;81;34397;-61
2021/11/28 04:18:36;;;;;;;99.42;46.92;;;;;;;-0.58;77.87;98423.28;2104579;83;29342;-61
2021/11/28 04:21:42;;;;;;;88.97;43.95;;;;;;;-0.61;77.97;98413.70;2148954;82;27744;-61
2021/11/28 04:24:42;;;;;;;94.25;46.77;;;;;;;-0.64;77.78;98412.05;2170438;82;29123;-62
2021/11/28 04:27:44;;;;;;;88.12;43.85;;;;;;;-0.67;77.73;98408.20;2144202;82;31845;-62
2021/11/28 04:30:46;;;;;;;87.08;44.93;;;;;;;-0.68;77.74;98397.76;2103800;83;33351;-62
2021/11/28 04:33:48;;;;;;;98.07;46.48;;;;;;;-0.71;77.70;98394.75;2141290;83;29772;-63
2021/11/28 04:36:50;;;;;;;106.92;52.27;;;;;;;-0.71;77.75;98386.02;2103934;84;27667;-71
2021/11/28 04:39:52;;;;;;;99.30;48.98;;;;;;;-0.73;77.87;98387.84;2142339;83;29005;-69
2021/11/28 04:42:53;;;;;;;96.55;48.83;;;;;;;;;;2104331;84;32192;-70
2021/11/28 04:45:55;;;;;;;96.02;48.40;;;;;;;-0.71;78.02;98389.97;2142233;83;32830;-71
2021/11/28 04:48:59;;;;;;;94.87;47.70;;;;;;;-0.67;78.08;98379.76;2104151;84;28730;-66
2021/11/28 04:52:01;;;;;;;103.07;52.17;;;;;;;-0.66;78.01;98387.58;2142544;83;27722;-68
2021/11/28 04:55:06;;;;;;;102.40;51.20;;;;;;;-0.64;78.03;98393.64;2104313;84;28826;-64
2021/11/28 04:58:07;;;;;;;;;;;;;;;-0.62;78.04;98395.77;2141646;82;31027;-63
2021/11/28 05:01:09;;;;;;;101.67;49.03;;;;;;;-0.58;78.13;98397.83;2140738;82;33306;-64
2021/11/28 05:04:11;;;;;;;96.75;48.28;;;;;;;-0.54;78.24;98403.83;2104416;84;30100;-72
2021/11/28 05:07:13;;;;;;;96.28;49.08;;;;;;;-0.52;78.27;98406.83;2141321;83;27705;-69
2021/11/28 05:10:14;;;;;;;97.70;48.73;;;;;;;-0.49;78.29;98410.64;2103278;83;28501;-72
2021/11/28 05:13:16;;;;;;;99.28;50.67;;;;;;;-0.44;78.32;98413.13;2142146;83;31642;-73
2021/11/28 05:16:18;;;;;;;94.03;49.85;;;;;;;-0.41;78.25;98417.41;2103752;84;33101;-62
2021/11/28 05:19:20;;;;;;;101.97;52.05;;;;;;;-0.40;78.22;98417.34;2141890;83;29983;-62
2021/11/28 05:22:21;;;;;;;104.72;50.83;;;;;;;-0.38;78.14;98426.05;2104361;83;27644;-62
2021/11/28 05:25:23;;;;;;;99.32;50.17;;;;;;;-0.38;78.13;98422.10;2141666;82;29064;-62
2021/11/28 05:28:25;;;;;;;101.78;51.75;;;;;;;-0.37;78.11;98422.51;2136742;82;31210;-63
2021/11/28 05:31:26;;;;;;;103.42;52.13;;;;;;;;;;2126778;83;34003;-62
2021/11/28 05:34:28;;;;;;;97.97;49.88;;;;;;;-0.42;77.85;98426.22;2131255;83;29724;-63
2021/11/28 05:37:30;;;;;;;99.25;51.37;;;;;;;-0.48;77.76;98423.35;2131353;82;28205;-63
2021/11/28 05:40:32;;;;;;;103.27;51.73;;;;;;;-0.52;77.69;98426.99;2120210;82;28677;-62
2021/11/28 05:43:37;;;;;;;110.97;56.50;;;;;;;-0.55;77.80;98420.52;2116490;84;31233;-62
2021/11/28 05:46:38;;;;;;;113.37;55.83;;;;;;;-0.58;77.80;98426.75;2117143;83;36727;-62
2021/11/28 05:49:40;;;;;;;107.05;54.50;;;;;;;-0.61;77.86;98429.48;2117132;82;29539;-62
2021/11/28 05:52:42;;;;;;;110.70;57.65;;;;;;;-0.63;77.85;98429.98;2117334;84;27651;-62
2021/11/28 05:55:44;;;;;;;115.47;57.60;;;;;;;-0.64;77.86;98429.58;2140922;82;29050;-61
2021/11/28 05:58:45;;;;;;;102.78;55.65;;;;;;;-0.65;77.85;98419.98;2142566;82;31405;-63
2021/11/28 06:01:47;;;;;;;108.32;55.35;;;;;;;-0.66;77.78;98427.48;2142600;82;33497;-62
2021/11/28 06:04:49;;;;;;;110.52;55.15;;;;;;;-0.69;77.74;98429.75;2141966;83;29512;-62
2021/11/28 06:07:51;;;;;;;101.92;51.90;;;;;;;-0.72;77.66;98431.16;2140749;81;27593;-62
2021/11/28 06:10:53;;;;;;;104.45;53.28;;;;;;;-0.75;77.68;98427.78;2140431;83;29553;-61
2021/11/28 06:13:55;;;;;;;102.22;51.90;;;;;;;-0.80;77.62;98431.42;2140653;83;31390;-61
2021/11/28 06:16:56;;;;;;;99.62;51.23;;;;;;;-0.81;77.69;98436.74;2171686;81;33528;-62
2021/11/28 06:19:58;;;;;;;95.00;50.00;;;;;;;-0.83;77.67;98446.45;2171829;82;29918;-61
2021/11/28 06:23:00;;;;;;;106.70;48.52;;;;;;;-0.85;77.69;98453.08;2172010;82;27641;-61
2021/11/28 06:26:02;;;;;;;105.10;49.23;;;;;;;-0.88;77.65;98445.30;2149587;82;29516;-61
2021/11/28 06:29:04;;;;;;;97.08;49.40;;;;;;;-0.90;77.70;98435.28;2122900;83;31185;-61
2021/11/28 06:32:07;;;;;;;109.55;50.40;;;;;;;-0.90;77.80;98435.72;2122134;83;34256;-60
2021/11/28 06:35:09;;;;;;;115.72;54.80;;;;;;;-0.92;77.76;98437.09;2120109;83;29336;-62
2021/11/28 06:38:11;;;;;;;110.05;55.30;;;;;;;-0.93;77.83;98432.31;2103182;83;27721;-62
2021/11/28 06:41:14;;;;;;;104.78;51.70;;;;;;;-0.95;77.87;98435.44;2172292;81;29718;-62
2021/11/28 06:44:16;;;;;;;110.45;55.03;;;;;;;-0.92;77.94;98444.98;2171781;82;31075;-61
2021/11/28 06:47:18;;;;;;;103.20;51.00;;;;;;;-0.90;77.96;98445.80;2171734;82;34190;-63
2021/11/28 06:50:20;;;;;;;104.78;51.10;;;;;;;-0.88;77.98;98440.47;2157046;82;28994;-61
2021/11/28 06:53:22;;;;;;;108.78;53.70;;;;;;;-0.86;77.97;98448.73;2150934;82;27676;-62
2021/11/28 06:56:23;;;;;;;100.90;49.30;;;;;;;-0.82;77.98;98445.54;2150932;82;28856;-61
2021/11/28 06:59:26;;;;;;;97.05;50.38;;;;;;;-0.82;77.93;98451.64;2140362;83;32297;-62
2021/11/28 07:02:28;;;;;;;102.85;50.12;;;;;;;-0.79;77.90;98447.60;2150056;82;34179;-61
2021/11/28 07:05:30;;;;;;;105.35;52.33;;;;;;;-0.77;77.94;98451.05;2149595;82;30158;-62
2021/11/28 07:08:40;;;;;;;98.52;50.10;;;;;;;-0.71;78.05;98448.66;2101836;84;27718;-62
2021/11/28 07:11:42;;;;;;;102.67;52.90;;;;;;;-0.66;78.09;98450.69;2093473;84;28169;-61
2021/11/28 07:14:44;;;;;;;101.67;50.80;;;;;;;-0.60;78.10;98448.77;2117981;83;31945;-61
2021/11/28 07:17:47;;;;;;;101.00;51.00;;;;;;;-0.57;78.04;98441.62;2117946;83;33343;-63
2021/11/28 07:20:48;;;;;;;104.58;55.70;;;;;;;-0.51;78.10;98450.63;2117561;84;30437;-61
2021/11/28 07:23:51;;;;;;;115.50;59.38;;;;;;;-0.47;78.05;98449.59;2141647;83;27588;-61
2021/11/28 07:26:53;;;;;;;139.30;67.67;;;;;;;-0.40;78.04;98453.33;2141728;83;28869;-61
2021/11/28 07:29:57;;;;;;;132.20;67.72;;;;;;;-0.36;78.01;98461.06;2107123;83;31026;-61
2021/11/28 07:32:59;;;;;;;143.28;70.08;;;;;;;-0.33;78.04;98468.00;2117387;83;33082;-60
2021/11/28 07:36:00;;;;;;;214.55;98.40;;;;;;;-0.29;77.94;98471.38;2117322;84;29797;-61
2021/11/28 07:39:07;;;;;;;171.00;87.75;;;;;;;-0.27;77.92;98476.98;2116521;84;27775;-61
2021/11/28 07:42:11;;;;;;;125.20;62.45;;;;;;;-0.23;77.94;98479.91;2117304;83;28697;-62
2021/11/28 07:45:13;;;;;;;124.90;61.63;;;;;;;-0.18;78.00;98485.01;2116770;84;33215;-61
2021/11/28 07:48:16;;;;;;;141.03;71.33;;;;;;;-0.11;78.17;98486.97;2117386;84;32987;-61
2021/11/28 07:51:17;;;;;;;141.28;74.22;;;;;;;-0.06;78.10;98480.61;2117782;84;29472;-62
2021/11/28 07:54:19;;;;;;;181.90;94.32;;;;;;;0.02;78.17;98484.29;2117812;84;27736;-62
2021/11/28 07:57:21;;;;;;;137.88;70.65;;;;;;;0.09;78.21;98480.97;2117820;84;29685;-61
2021/11/28 08:00:23;;;;;;;121.85;61.08;;;;;;;0.17;78.25;98488.15;2117530;84;31451;-62
2021/11/28 08:03:25;;;;;;;120.90;60.08;;;;;;;0.25;78.23;98489.19;2117325;84;35079;-62
2021/11/28 08:06:27;;;;;;;115.90;57.43;;;;;;;0.30;78.00;98487.25;2117923;82;29656;-61
2021/11/28 08:09:28;;;;;;;116.37;56.92;;;;;;;0.34;77.89;98490.14;2116215;84;27730;-62
2021/11/28 08:12:31;;;;;;;110.20;53.75;;;;;;;0.39;77.81;98494.80;2116944;84;28738;-62
2021/11/28 08:15:33;;;;;;;113.83;54.73;;;;;;;0.42;77.65;98498.64;2117066;84;30738;-61
2021/11/28 08:18:39;;;;;;;101.65;50.28;;;;;;;0.47;77.76;98506.36;2117008;84;32757;-62
2021/11/28 08:21:40;;;;;;;85.12;45.65;;;;;;;0.56;77.97;98506.47;2115002;83;29505;-65
2021/11/28 08:24:44;;;;;;;88.90;44.93;;;;;;;0.63;77.79;98501.39;2104195;84;27696;-60
2021/11/28 08:27:46;;;;;;;81.35;44.60;;;;;;;0.70;77.73;98501.53;2142309;82;29828;-60
2021/11/28 08:30:48;;;;;;;90.35;43.55;;;;;;;0.80;77.98;98498.08;2121401;83;32032;-59
2021/11/28 08:33:50;;;;;;;77.35;42.43;;;;;;;0.91;77.99;98498.52;2130796;83;33425;-61
2021/11/28 08:36:54;;;;;;;79.85;40.50;;;;;;;1.02;77.95;98500.73;2131100;83;29774;-60
2021/11/28 08:39:58;;;;;;;79.65;44.08;;;;;;;1.10;77.93;98483.28;2040240;86;27684;-60
2021/11/28 08:43:00;;;;;;;80.42;41.92;;;;;;;1.20;77.77;98471.90;2104664;83;29865;-59
2021/11/28 08:46:02;;;;;;;85.45;45.30;;;;;;;1.29;77.80;98470.22;2129509;83;31586;-60
2021/11/28 08:49:05;;;;;;;85.17;46.55;;;;;;;1.35;77.48;98467.78;2129789;83;34070;-60
2021/11/28 08:52:07;;;;;;;85.72;44.58;;;;;;;1.43;77.46;98467.46;2104466;83;29235;-61
2021/11/28 08:55:09;;;;;;;70.70;39.90;;;;;;;1.52;77.47;98465.73;2099022;84;27654;-60
2021/11/28 08:58:11;;;;;;;84.32;47.62;;;;;;;1.55;77.37;98460.34;2098480;84;30056;-60
2021/11/28 09:01:13;;;;;;;84.40;47.78;;;;;;;1.61;77.25;98460.09;2098782;84;30404;-61
2021/11/28 09:04:14;;;;;;;93.27;52.70;;;;;;;1.65;77.08;98464.31;2098227;84;33832;-61
2021/11/28 09:07:17;;;;;;;92.72;50.10;;;;;;;1.67;77.01;98458.95;2100220;84;30636;-61
2021/11/28 09:10:19;;;;;;;84.00;46.88;;;;;;;1.71;76.89;98459.67;2121809;83;27764;-59
2021/11/28 09:13:22;;;;;;;82.80;46.77;;;;;;;1.71;76.64;98478.16;2108354;83;29080;-59
2021/11/28 09:16:24;;;;;;;85.62;45.35;;;;;;;1.70;76.55;98477.75;2105002;84;32071;-61
2021/11/28 09:25:49;;;;;;;131.20;71.02;;;;;;;1.61;76.29;98469.77;1959923;89;27906;-61
2021/11/28 09:28:52;;;;;;;144.95;86.60;;;;;;;1.58;76.27;98469.45;1998393;89;29243;-61
2021/11/28 09:31:53;;;;;;;142.22;80.70;;;;;;;1.59;76.51;98468.97;1979876;89;30475;-62
2021/11/28 09:34:55;;;;;;;130.25;70.35;;;;;;;1.62;76.60;98475.44;1990443;89;32999;-61
2021/11/28 09:37:58;;;;;;;126.60;71.42;;;;;;;1.66;76.59;98473.92;2013813;88;29744;-61
2021/11/28 09:41:08;;;;;;;121.65;65.60;;;;;;;1.71;76.72;98472.88;2013661;88;27586;-62
2021/11/28 09:44:11;;;;;;;137.10;70.55;;;;;;;1.80;76.78;98464.58;1992674;89;28679;-60
2021/11/28 09:47:13;;;;;;;125.67;67.08;;;;;;;1.83;76.57;98452.53;1992689;89;31857;-61
2021/11/28 09:50:16;;;;;;;131.40;75.30;;;;;;;1.81;76.42;98449.13;1993696;89;34319;-60
2021/11/28 09:53:18;;;;;;;124.22;70.03;;;;;;;1.81;76.42;98443.38;1993993;89;30514;-61
2021/11/28 09:56:20;;;;;;;125.42;68.33;;;;;;;1.83;76.29;98435.38;1994225;89;27778;-62
2021/11/28 09:59:22;;;;;;;119.40;62.55;;;;;;;1.81;76.23;98435.93;2045534;84;29073;-62
2021/11/28 10:02:29;;;;;;;104.27;54.65;;;;;;;1.82;76.22;98424.45;2117503;83;31620;-63
2021/11/28 10:05:31;;;;;;;104.80;55.85;;;;;;;1.84;76.20;98429.17;2116443;82;33601;-60
2021/11/28 10:08:33;;;;;;;138.37;78.22;;;;;;;1.85;76.20;98422.96;2118980;83;29474;-60
2021/11/28 10:11:48;;;;;;;104.90;55.40;;;;;;;1.85;76.11;98418.16;2120881;84;27649;-60
2021/11/28 10:14:55;;;;;;;128.20;70.97;;;;;;;1.87;76.03;98419.80;2139378;83;33072;-60
2021/11/28 10:17:59;;;;;;;150.68;81.90;;;;;;;1.84;75.98;98408.05;2081883;85;33123;-60
2021/11/28 10:21:04;;;;;;;127.15;67.53;;;;;;;1.89;76.23;98411.34;2152387;82;33337;-62
2021/11/28 10:24:10;;;;;;;200.20;104.87;;;;;;;1.96;76.15;98409.29;2152709;82;29712;-59
2021/11/28 10:27:12;;;;;;;158.42;85.20;;;;;;;2.00;75.98;98405.59;2104154;84;27732;-60
2021/11/28 10:30:19;;;;;;;138.68;68.85;;;;;;;2.00;75.99;98398.98;2141806;83;28799;-59
2021/11/28 10:33:22;;;;;;;149.62;75.62;;;;;;;2.07;76.07;98394.28;2098024;83;31077;-59
2021/11/28 10:36:24;;;;;;;145.87;72.87;;;;;;;2.09;75.93;98385.83;2142731;83;33825;-62
2021/11/28 10:39:26;;;;;;;126.80;66.87;;;;;;;2.10;76.08;98389.70;2073382;83;30638;-61
2021/11/28 10:42:32;;;;;;;130.27;66.80;;;;;;;2.12;76.09;98391.81;2138722;82;27732;-60
2021/11/28 10:45:47;;;;;;;161.25;80.77;;;;;;;2.17;76.04;98396.03;2135717;82;28652;-62
2021/11/28 10:48:44;;;;;;;129.50;68.05;;;;;;;2.20;76.26;98395.42;2134367;83;32038;-61
2021/11/28 10:51:50;;;;;;;128.27;66.22;;;;;;;2.25;76.18;98397.84;2140102;83;33514;-63
2021/11/28 10:54:55;;;;;;;129.10;68.97;;;;;;;2.28;76.22;98393.30;2080036;84;29554;-61
2021/11/28 11:01:45;;;;;;;140.47;72.05;;;;;;;2.34;75.94;98403.16;2077489;85;29031;-62
2021/11/28 11:04:49;;;;;;;128.80;69.07;;;;;;;2.34;75.89;98392.59;2077161;85;32479;-62
2021/11/28 11:07:54;;;;;;;127.15;66.47;;;;;;;2.33;75.90;98397.04;2077021;85;33831;-61
2021/11/28 11:11:08;;;;;;;;;;;;;;;2.36;75.99;98394.70;2079984;85;30362;-58
2021/11/28 11:14:11;;;;;;;101.78;52.50;;;;;;;2.37;76.05;98393.33;2077387;85;27675;-61
2021/11/28 11:17:13;;;;;;;98.72;53.87;;;;;;;2.36;76.04;98393.38;2077187;85;29901;-62
2021/11/28 11:20:21;;;;;;;111.70;59.55;;;;;;;2.35;76.03;98391.22;2077159;85;31404;-61
2021/11/28 11:23:42;;;;;;;124.35;65.72;;;;;;;2.35;75.96;98392.54;2076058;84;33020;-70
2021/11/28 11:26:44;;;;;;;146.70;71.90;;;;;;;2.36;76.00;98382.81;2078903;85;30102;-61
2021/11/28 11:29:49;;;;;;;139.05;73.65;;;;;;;2.35;75.97;98380.66;2068892;86;27758;-60
2021/11/28 11:32:56;;;;;;;140.18;74.77;;;;;;;2.31;75.90;98377.75;2069512;86;28652;-61
2021/11/28 11:35:58;;;;;;;147.35;77.42;;;;;;;2.31;75.98;98376.91;2079308;85;30547;-60
2021/11/28 11:39:00;;;;;;;148.22;76.75;;;;;;;2.31;76.01;98375.11;2059461;85;34192;-60
2021/11/28 11:42:02;;;;;;;152.40;79.27;;;;;;;2.30;76.01;98366.79;2060276;84;30524;-60
2021/11/28 11:45:07;;;;;;;154.63;78.40;;;;;;;2.30;76.00;98363.31;2080700;85;27681;-60
2021/11/28 11:48:09;;;;;;;144.37;75.78;;;;;;;2.30;76.07;98354.06;2080082;85;32893;-61
2021/11/28 11:51:15;;;;;;;141.22;79.70;;;;;;;2.31;76.05;98353.97;2089598;84;31119;-61
2021/11/28 11:54:26;;;;;;;136.15;75.90;;;;;;;2.32;75.99;98350.88;2088263;84;32955;-61
2021/11/28 11:58:02;;;;;;;117.93;65.03;;;;;;;2.25;75.93;98348.52;2095425;84;29395;-60
2021/11/28 12:01:24;;;;;;;110.32;60.58;;;;;;;2.25;76.01;98343.23;2079980;83;27704;-60
2021/11/28 12:04:37;;;;;;;109.25;63.52;;;;;;;2.23;76.06;98333.20;2064399;85;28783;-60
2021/11/28 12:07:55;;;;;;;115.35;63.60;;;;;;;2.23;76.11;98330.56;2071033;86;31887;-59
2021/11/28 12:11:04;;;;;;;120.02;64.27;;;;;;;2.19;76.03;98317.58;2071267;86;32967;-60
2021/11/28 12:14:06;;;;;;;150.07;77.55;;;;;;;2.18;76.09;98317.19;2071598;85;29339;-61
2021/11/28 12:17:39;;;;;;;161.65;89.85;;;;;;;2.15;76.18;98318.20;2072732;85;27723;-62
2021/11/28 12:20:57;;;;;;;132.72;74.32;;;;;;;2.18;76.39;98314.06;2072476;85;30020;-61
2021/11/28 12:24:19;;;;;;;148.57;87.72;;;;;;;2.20;76.36;98316.17;2045617;85;46704;-59
2021/11/28 12:27:38;;;;;;;128.70;76.50;;;;;;;2.24;76.51;98311.14;2072671;84;33065;-61
2021/11/28 12:30:40;;;;;;;95.67;53.63;;;;;;;2.28;76.47;98315.36;2071758;85;29274;-60
2021/11/28 12:34:00;;;;;;;83.75;49.88;;;;;;;2.33;76.50;98314.25;2045911;85;27734;-60
2021/11/28 12:37:03;;;;;;;81.53;48.30;;;;;;;2.37;76.51;98317.15;2071306;85;30190;-60
2021/11/28 12:40:27;;;;;;;91.20;53.30;;;;;;;2.40;76.45;98324.45;2071352;86;32219;-58
2021/11/28 12:43:29;;;;;;;94.20;52.55;;;;;;;2.42;76.37;98325.24;2072610;85;32976;-64
2021/11/28 12:46:48;;;;;;;97.67;56.02;;;;;;;2.43;76.35;98323.47;2072214;85;30562;-60
2021/11/28 12:50:01;;;;;;;95.50;53.92;;;;;;;2.44;76.35;98317.26;2071423;85;28002;-60
2021/11/28 12:53:06;;;;;;;97.08;56.02;;;;;;;2.43;76.29;98308.45;2072995;85;29664;-62
2021/11/28 12:56:15;;;;;;;98.22;56.70;;;;;;;2.44;76.29;98313.29;2071119;85;31746;-60
2021/11/28 12:59:19;;;;;;;111.57;62.35;;;;;;;2.45;76.34;98306.20;2070070;85;33339;-61
2021/11/28 13:02:43;;;;;;;107.05;61.02;;;;;;;2.46;76.32;98304.83;2077824;85;29356;-61
2021/11/28 13:05:57;;;;;;;103.15;58.75;;;;;;;2.47;76.32;98306.98;2068637;85;27738;-61
2021/11/28 13:09:01;;;;;;;113.95;63.15;;;;;;;2.43;76.31;98294.41;2078924;84;28674;-59
2021/11/28 13:12:12;;;;;;;117.67;63.58;;;;;;;2.43;76.29;98295.24;2049407;85;32208;-60
2021/11/28 13:15:21;;;;;;;109.37;61.75;;;;;;;2.43;76.28;98296.56;2078543;85;32961;-61
2021/11/28 13:18:33;;;;;;;114.12;63.55;;;;;;;2.44;76.33;98294.80;2078603;85;30277;-60
2021/11/28 13:21:36;;;;;;;111.65;62.75;;;;;;;2.43;76.27;98289.12;2079293;85;27709;-60
2021/11/28 13:24:40;;;;;;;114.97;62.48;;;;;;;2.41;76.29;98293.62;2052159;85;29278;-63
2021/11/28 13:27:42;;;;;;;113.47;64.70;;;;;;;2.41;76.32;98297.10;2079481;85;31033;-65
2021/11/28 13:30:51;;;;;;;145.20;75.57;;;;;;;2.39;76.34;98300.76;2078214;85;34199;-72
2021/11/28 13:34:00;;;;;;;178.53;88.45;;;;;;;2.39;76.36;98298.98;2079560;85;29463;-76
2021/11/28 13:37:03;;;;;;;199.17;92.82;;;;;;;2.40;76.36;98309.08;2079460;85;27656;-74
2021/11/28 13:40:12;;;;;;;192.22;90.45;;;;;;;2.37;76.30;98307.91;2079718;85;28735;-73
2021/11/28 13:43:40;;;;;;;232.12;102.25;;;;;;;2.35;76.31;98311.95;2078417;85;31088;-72
2021/11/28 13:46:56;;;;;;;260.73;107.03;;;;;;;2.33;76.30;98309.84;2077484;85;33422;-66
2021/11/28 13:50:06;;;;;;;216.17;92.82;;;;;;;2.33;76.37;98305.01;2021076;86;28766;-70
2021/11/28 13:53:16;;;;;;;282.02;117.50;;;;;;;2.31;76.37;98308.22;2039549;87;27724;-64
2021/11/28 13:56:18;;;;;;;342.93;162.35;;;;;;;2.30;76.43;98307.83;2067963;86;29755;-73
2021/11/28 13:59:24;;;;;;;224.85;116.00;;;;;;;2.30;76.40;98309.14;2056012;86;32201;-67
2021/11/28 14:02:35;;;;;;;132.75;73.50;;;;;;;2.28;76.40;98301.27;2048553;86;33055;-63
2021/11/28 14:05:36;;;;;;;110.40;61.85;;;;;;;2.27;76.39;98295.15;2048169;86;29365;-62
2021/11/28 14:09:01;;;;;;;110.65;63.42;;;;;;;2.27;76.43;98276.66;2047873;86;27757;-63
2021/11/28 14:12:11;;;;;;;109.70;63.33;;;;;;;2.24;76.39;98275.47;2048384;86;28771;-63
2021/11/28 14:15:28;;;;;;;113.28;63.40;;;;;;;2.22;76.39;98276.49;2050119;86;31038;-67
2021/11/28 14:18:43;;;;;;;117.03;63.33;;;;;;;2.19;76.39;98262.10;2049766;86;33148;-60
2021/11/28 14:21:45;;;;;;;112.70;63.13;;;;;;;2.16;76.36;98257.80;2050038;86;29057;-66
2021/11/28 14:24:47;;;;;;;112.47;59.85;;;;;;;2.13;76.42;98256.66;2047170;86;27726;-71